createdAt,value
2023-05-10T06:21:39.030Z,13.70
2023-05-10T06:24:50.992Z,15.10
2023-05-10T06:28:02.087Z,15.60
2023-05-10T06:31:18.033Z,15.40
2023-05-10T06:34:30.416Z,15.30
2023-05-10T06:41:16.872Z,15.00
2023-05-10T06:47:58.375Z,14.90
2023-05-10T06:52:13.664Z,14.80
2023-05-10T06:54:32.873Z,14.60
2023-05-10T06:58:12.629Z,14.90
2023-05-10T07:01:13.113Z,15.20
2023-05-10T07:04:24.395Z,15.30
2023-05-10T07:07:46.824Z,15.20
2023-05-10T07:11:14.287Z,15.00
2023-05-10T07:15:00.429Z,15.00
2023-05-10T07:18:03.846Z,14.90
2023-05-10T07:21:10.447Z,15.30
2023-05-10T07:27:39.388Z,16.10
2023-05-10T07:31:02.990Z,15.70
2023-05-10T07:34:21.537Z,15.90
2023-05-10T08:08:25.223Z,17.60
2023-05-10T08:15:02.456Z,18.10
2023-05-10T08:21:10.365Z,19.50
2023-05-10T08:24:36.561Z,19.00
2023-05-10T08:28:05.422Z,18.90
2023-05-10T08:31:24.701Z,19.50
2023-05-10T08:34:38.128Z,19.60
2023-05-10T08:41:38.495Z,19.20
2023-05-10T08:44:51.053Z,19.10
2023-05-10T08:47:53.793Z,18.70
2023-05-10T08:51:11.207Z,18.50
2023-05-10T08:54:08.018Z,18.20
2023-05-10T08:57:37.104Z,18.20
2023-05-10T09:00:45.891Z,18.20
2023-05-10T09:04:03.602Z,17.70
2023-05-10T09:14:48.074Z,17.00
2023-05-10T09:18:30.306Z,17.10
2023-05-10T09:21:48.539Z,17.40
2023-05-10T09:25:04.140Z,17.50
2023-05-10T09:28:27.638Z,17.50
2023-05-10T09:31:32.699Z,17.50
2023-05-10T09:35:01.256Z,17.80
2023-05-10T09:38:15.938Z,18.20
2023-05-10T09:44:51.524Z,18.30
2023-05-10T09:58:12.674Z,19.30
2023-05-10T10:01:50.780Z,19.60
2023-05-10T10:04:57.138Z,19.70
2023-05-10T10:08:27.821Z,19.90
2023-05-10T10:11:36.117Z,19.80
2023-05-10T10:15:07.647Z,19.60
2023-05-10T10:18:13.330Z,19.40
2023-05-10T10:21:17.447Z,19.10
2023-05-10T10:24:55.168Z,18.40
2023-05-10T10:28:09.300Z,18.10
2023-05-10T10:34:52.410Z,18.40
2023-05-10T10:38:20.566Z,18.40
2023-05-10T10:42:12.125Z,18.50
2023-05-10T10:45:34.542Z,18.50
2023-05-10T10:48:50.763Z,18.30
2023-05-10T10:52:45.533Z,18.20
2023-05-10T10:56:14.413Z,17.90
2023-05-10T11:03:58.275Z,17.10
2023-05-10T11:07:14.518Z,16.50
2023-05-10T11:56:26.775Z,15.60
2023-05-10T11:59:44.644Z,14.30
2023-05-10T12:38:01.105Z,14.30
2023-05-10T12:42:05.783Z,14.60
2023-05-10T12:45:27.415Z,14.60
2023-05-10T12:48:44.091Z,14.50
2023-05-10T12:51:58.593Z,14.50
2023-05-10T12:57:50.403Z,14.50
2023-05-10T12:59:50.697Z,14.50
2023-05-10T13:03:05.842Z,14.40
2023-05-10T13:06:09.738Z,14.40
2023-05-10T13:10:14.510Z,14.30
2023-05-10T13:21:18.962Z,14.30
2023-05-10T13:24:16.552Z,14.40
2023-05-10T13:27:23.163Z,14.60
2023-05-10T13:30:21.988Z,14.80
2023-05-10T13:33:20.681Z,14.90
2023-05-10T13:37:35.546Z,14.90
2023-05-10T13:40:36.433Z,14.90
2023-05-10T13:43:46.563Z,15.10
2023-05-10T13:47:31.324Z,15.20
2023-05-10T13:51:09.806Z,15.30
2023-05-10T13:54:16.000Z,15.50
2023-05-10T13:57:45.554Z,15.50
2023-05-10T14:01:11.987Z,15.40
2023-05-10T14:04:49.965Z,15.20
2023-05-10T14:08:02.739Z,15.10
2023-05-10T14:12:12.954Z,15.10
2023-05-10T14:15:33.636Z,15.20
2023-05-10T14:18:50.803Z,15.40
2023-05-10T14:22:09.342Z,15.50
2023-05-10T14:28:48.283Z,15.40
2023-05-10T14:36:11.695Z,15.50
2023-05-10T14:39:26.363Z,15.40
2023-05-10T14:42:39.220Z,15.50
2023-05-10T14:46:05.868Z,15.30
2023-05-10T14:49:11.810Z,15.30
2023-05-10T14:52:26.702Z,15.20
2023-05-10T14:55:46.590Z,15.20
2023-05-10T14:59:10.857Z,15.20
2023-05-10T15:05:19.308Z,15.20
2023-05-10T15:06:07.442Z,15.20
2023-05-10T15:12:55.022Z,15.50
2023-05-10T15:17:13.182Z,15.70
2023-05-10T15:20:18.845Z,15.70
2023-05-10T16:09:41.251Z,15.60
2023-05-10T16:53:51.571Z,16.50
2023-05-10T16:57:26.200Z,16.90
2023-05-10T17:00:58.254Z,16.50
2023-05-10T17:04:32.801Z,16.10
2023-05-10T17:11:14.694Z,15.60
2023-05-10T17:14:45.695Z,15.40
2023-05-10T17:17:52.282Z,15.30
2023-05-10T17:21:03.101Z,15.40
2023-05-10T17:24:23.497Z,15.40
2023-05-10T17:31:04.037Z,15.50
2023-05-10T17:34:25.254Z,15.60
2023-05-10T17:37:39.159Z,15.60
2023-05-10T17:40:52.747Z,15.70
2023-05-10T17:44:14.205Z,15.20
2023-05-10T17:47:58.454Z,14.80
2023-05-10T19:06:51.427Z,14.50
2023-05-10T19:23:09.565Z,13.80
2023-05-10T19:26:26.875Z,12.80
2023-05-10T19:32:54.574Z,12.40
2023-05-10T19:36:28.525Z,12.30
2023-05-10T19:40:00.682Z,12.20
2023-05-10T19:46:38.346Z,12.10
2023-05-10T19:49:45.435Z,12.10
2023-05-10T19:53:11.486Z,12.00
2023-05-10T19:56:38.018Z,11.90
2023-05-10T19:59:42.385Z,12.00
2023-05-10T20:06:39.904Z,12.00
2023-05-10T20:09:48.913Z,11.90
2023-05-10T20:13:02.324Z,11.90
2023-05-10T20:19:12.820Z,11.80
2023-05-10T23:02:04.039Z,11.70
2023-05-10T23:05:03.259Z,11.00
2023-05-10T23:50:38.279Z,10.50
2023-05-10T23:53:53.545Z,10.40
